createdAt,value
2022-11-29T00:01:07.713Z,101340.13
2022-11-29T00:03:34.644Z,101332.16
2022-11-29T00:06:10.031Z,101336.91
2022-11-29T00:08:37.075Z,101338.84
2022-11-29T00:11:05.523Z,101334.31
2022-11-29T00:13:32.126Z,101344.28
2022-11-29T00:16:06.704Z,101338.34
2022-11-29T00:18:33.776Z,101339.31
2022-11-29T00:21:00.902Z,101336.53
2022-11-29T00:23:27.408Z,101335.34
2022-11-29T00:25:53.957Z,101338.91
2022-11-29T00:28:20.419Z,101340.56
2022-11-29T00:30:47.346Z,101337.56
2022-11-29T00:33:14.016Z,101334.66
2022-11-29T00:35:40.459Z,101339.75
2022-11-29T00:38:07.041Z,101340.50
2022-11-29T00:40:34.155Z,101338.69
2022-11-29T00:43:01.788Z,101347.50
2022-11-29T00:45:28.299Z,101344.81
2022-11-29T00:47:54.850Z,101336.63
2022-11-29T00:50:21.412Z,101341.91
2022-11-29T00:52:47.919Z,101339.22
2022-11-29T00:55:14.672Z,101342.78
2022-11-29T00:57:41.526Z,101337.38
2022-11-29T01:00:10.776Z,101346.44
2022-11-29T01:02:37.489Z,101349.22
2022-11-29T01:05:04.255Z,101344.72
2022-11-29T01:07:30.900Z,101344.72
2022-11-29T01:09:57.397Z,101346.53
2022-11-29T01:12:23.899Z,101344.72
2022-11-29T01:14:50.348Z,101337.50
2022-11-29T01:17:16.849Z,101343.75
2022-11-29T01:19:49.292Z,101341.91
2022-11-29T01:22:17.283Z,101348.25
2022-11-29T01:24:44.035Z,101350.19
2022-11-29T01:27:10.839Z,101348.47
2022-11-29T01:29:37.387Z,101354.72
2022-11-29T01:32:04.136Z,101348.56
2022-11-29T01:34:30.692Z,101349.53
2022-11-29T01:36:57.508Z,101351.47
2022-11-29T01:39:24.066Z,101350.63
2022-11-29T01:41:50.580Z,101349.81
2022-11-29T01:44:17.021Z,101354.34
2022-11-29T01:46:46.026Z,101349.06
2022-11-29T01:49:17.777Z,101359.09
2022-11-29T01:51:50.398Z,101363.59
2022-11-29T01:54:18.074Z,101358.22
2022-11-29T01:56:47.290Z,101367.38
2022-11-29T01:59:18.457Z,101375.53
2022-11-29T02:01:45.346Z,101365.75
2022-11-29T02:04:12.235Z,101370.34
2022-11-29T02:06:39.712Z,101370.53
2022-11-29T02:09:19.625Z,101377.84
2022-11-29T02:12:03.379Z,101370.84
2022-11-29T02:15:06.780Z,101368.47
2022-11-29T02:17:58.967Z,101371.16
2022-11-29T02:21:03.292Z,101374.06
2022-11-29T02:23:39.421Z,101370.59
2022-11-29T02:26:36.896Z,101378.13
2022-11-29T02:29:10.059Z,101382.75
2022-11-29T02:31:57.502Z,101384.78
2022-11-29T02:34:51.973Z,101386.81
2022-11-29T02:37:28.645Z,101395.94
2022-11-29T02:40:30.656Z,101392.69
2022-11-29T02:43:17.391Z,101394.72
2022-11-29T02:46:14.643Z,101398.56
2022-11-29T02:49:02.588Z,101398.78
2022-11-29T02:51:46.532Z,101395.22
2022-11-29T02:54:23.858Z,101396.09
2022-11-29T02:57:02.001Z,101401.47
2022-11-29T03:00:01.011Z,101406.63
2022-11-29T03:02:48.257Z,101402.03
2022-11-29T03:05:20.642Z,101403.75
2022-11-29T03:07:53.351Z,101403.75
2022-11-29T03:10:23.121Z,101408.91
2022-11-29T03:12:53.322Z,101408.25
2022-11-29T03:15:19.891Z,101403.94
2022-11-29T03:18:28.061Z,101410.19
2022-11-29T03:21:09.981Z,101415.38
2022-11-29T03:23:47.279Z,101424.28
2022-11-29T03:26:32.291Z,101421.50
2022-11-29T03:29:35.935Z,101430.25
2022-11-29T03:32:06.852Z,101426.47
2022-11-29T03:34:57.359Z,101439.84
2022-11-29T03:37:32.866Z,101437.81
2022-11-29T03:40:31.647Z,101438.56
2022-11-29T03:43:14.189Z,101443.66
2022-11-29T03:46:07.376Z,101441.63
2022-11-29T03:48:48.256Z,101445.94
2022-11-29T03:51:54.735Z,101449.47
2022-11-29T03:55:02.721Z,101454.66
2022-11-29T03:57:39.327Z,101448.63
2022-11-29T04:00:09.328Z,101464.97
2022-11-29T04:02:53.886Z,101460.44
2022-11-29T04:05:38.753Z,101462.69
2022-11-29T04:08:17.519Z,101472.66
2022-11-29T04:11:05.559Z,101473.63
2022-11-29T04:14:06.523Z,101470.94
2022-11-29T04:16:51.792Z,101493.03
2022-11-29T04:19:45.863Z,101477.66
2022-11-29T04:22:24.560Z,101481.09
2022-11-29T04:25:32.124Z,101475.81
2022-11-29T04:28:41.186Z,101472.28
2022-11-29T04:31:29.009Z,101479.38
2022-11-29T04:34:25.731Z,101478.50
2022-11-29T04:37:02.494Z,101480.13
2022-11-29T04:39:50.363Z,101482.72
2022-11-29T04:42:16.909Z,101490.50
2022-11-29T04:45:08.113Z,101485.13
2022-11-29T04:47:43.702Z,101490.31
2022-11-29T04:50:42.047Z,101495.69
2022-11-29T04:53:31.982Z,101493.66
2022-11-29T04:56:15.166Z,101498.06
2022-11-29T04:58:51.962Z,101500.75
2022-11-29T05:01:46.357Z,101505.28
2022-11-29T05:04:46.743Z,101514.97
2022-11-29T05:07:24.869Z,101514.00
2022-11-29T05:09:59.574Z,101513.25
2022-11-29T05:12:48.075Z,101518.63
2022-11-29T05:15:35.275Z,101522.19
2022-11-29T05:18:34.245Z,101524.97
2022-11-29T05:21:13.905Z,101530.34
2022-11-29T05:23:46.308Z,101537.78
2022-11-29T05:26:22.752Z,101533.34
2022-11-29T05:29:10.148Z,101537.09
2022-11-29T05:32:09.991Z,101535.28
2022-11-29T05:35:03.056Z,101536.81
2022-11-29T05:37:44.163Z,101545.63
2022-11-29T05:40:13.700Z,101537.38
2022-11-29T05:43:17.595Z,101546.31
2022-11-29T05:45:57.843Z,101547.28
2022-11-29T05:48:33.612Z,101551.78
2022-11-29T05:51:27.468Z,101564.28
2022-11-29T05:54:06.095Z,101564.94
2022-11-29T05:56:53.959Z,101563.06
2022-11-29T05:59:27.738Z,101570.06
2022-11-29T06:02:03.218Z,101572.66
2022-11-29T06:04:57.205Z,101577.38
2022-11-29T06:07:38.714Z,101576.31
2022-11-29T06:10:29.303Z,101585.53
2022-11-29T06:13:01.867Z,101581.19
2022-11-29T06:15:57.365Z,101581.88
2022-11-29T06:18:33.435Z,101588.69
2022-11-29T06:21:23.140Z,101587.75
2022-11-29T06:23:49.793Z,101583.97
2022-11-29T06:26:24.254Z,101596.47
2022-11-29T06:29:12.620Z,101596.41
2022-11-29T06:31:46.349Z,101597.28
2022-11-29T06:34:55.489Z,101605.25
2022-11-29T06:37:41.935Z,101603.53
2022-11-29T06:40:12.095Z,101606.38
2022-11-29T06:42:38.555Z,101615.50
2022-11-29T06:45:05.810Z,101620.13
2022-11-29T06:47:46.534Z,101616.38
2022-11-29T06:50:34.728Z,101619.78
2022-11-29T06:53:39.998Z,101621.41
2022-11-29T06:56:26.532Z,101633.69
2022-11-29T06:59:06.791Z,101636.19
2022-11-29T07:01:39.815Z,101641.47
2022-11-29T07:04:33.746Z,101644.94
2022-11-29T07:07:00.500Z,101642.03
2022-11-29T07:09:33.581Z,101647.44
2022-11-29T07:12:00.712Z,101653.69
2022-11-29T07:14:27.536Z,101655.72
2022-11-29T07:17:20.264Z,101643.13
2022-11-29T07:20:09.540Z,101652.91
2022-11-29T07:22:49.549Z,101659.94
2022-11-29T07:25:31.306Z,101659.84
2022-11-29T07:28:19.951Z,101662.53
2022-11-29T07:31:08.519Z,101666.09
2022-11-29T07:33:58.762Z,101669.63
2022-11-29T07:36:28.234Z,101673.28
2022-11-29T07:39:07.871Z,101680.59
2022-11-29T07:41:44.302Z,101685.03
2022-11-29T07:44:35.464Z,101686.84
2022-11-29T07:47:02.121Z,101682.44
2022-11-29T07:49:32.519Z,101687.06
2022-11-29T07:51:59.151Z,101682.72
2022-11-29T07:54:25.699Z,101680.81
2022-11-29T07:56:52.212Z,101682.53
2022-11-29T07:59:18.808Z,101686.00
2022-11-29T08:01:46.425Z,101681.66
2022-11-29T08:04:13.893Z,101685.22
2022-11-29T08:06:40.395Z,101684.47
2022-11-29T08:09:07.628Z,101681.88
2022-11-29T08:11:34.237Z,101691.66
2022-11-29T08:14:02.184Z,101688.22
2022-11-29T08:16:29.391Z,101691.00
2022-11-29T08:18:55.989Z,101686.69
2022-11-29T08:21:22.712Z,101697.44
2022-11-29T08:23:50.781Z,101691.28
2022-11-29T08:26:18.842Z,101693.13
2022-11-29T08:28:45.732Z,101693.03
2022-11-29T08:31:13.710Z,101696.47
2022-11-29T08:33:43.116Z,101699.06
2022-11-29T08:36:20.126Z,101704.16
2022-11-29T08:38:47.401Z,101705.91
2022-11-29T08:41:16.214Z,101711.38
2022-11-29T08:43:43.677Z,101720.22
2022-11-29T08:46:16.712Z,101722.81
2022-11-29T08:48:53.826Z,101723.69
2022-11-29T08:51:21.575Z,101731.75
2022-11-29T08:53:51.559Z,101729.94
2022-11-29T08:59:06.080Z,101743.50
2022-11-29T09:01:32.802Z,101740.91
2022-11-29T09:03:59.421Z,101756.19
2022-11-29T09:06:28.017Z,101743.78
2022-11-29T09:08:56.454Z,101753.50
2022-11-29T09:11:24.939Z,101756.19
2022-11-29T09:13:55.036Z,101753.41
2022-11-29T09:16:24.074Z,101754.25
2022-11-29T09:18:52.494Z,101763.09
2022-11-29T09:21:19.070Z,101770.13
2022-11-29T09:23:46.172Z,101762.06
2022-11-29T09:26:18.813Z,101764.75
2022-11-29T09:28:46.787Z,101770.22
2022-11-29T09:31:15.491Z,101773.78
2022-11-29T09:33:42.377Z,101775.59
2022-11-29T09:36:11.462Z,101781.00
2022-11-29T09:38:38.585Z,101781.00
2022-11-29T09:41:23.963Z,101788.22
2022-11-29T09:44:02.424Z,101795.31
2022-11-29T09:46:45.916Z,101784.66
2022-11-29T09:49:55.237Z,101789.06
2022-11-29T09:52:43.958Z,101795.22
2022-11-29T09:55:34.292Z,101792.44
2022-11-29T09:58:03.788Z,101794.16
2022-11-29T10:00:35.320Z,101787.81
2022-11-29T10:03:12.607Z,101799.28
2022-11-29T10:05:46.975Z,101798.13
2022-11-29T10:08:26.623Z,101805.22
2022-11-29T10:11:33.152Z,101805.22
2022-11-29T10:14:22.522Z,101806.78
2022-11-29T10:17:08.281Z,101802.25
2022-11-29T10:19:47.588Z,101800.31
2022-11-29T10:22:18.108Z,101808.31
2022-11-29T10:24:49.382Z,101800.22
2022-11-29T10:27:22.845Z,101802.06
2022-11-29T10:29:51.295Z,101804.66
2022-11-29T10:32:21.157Z,101794.53
2022-11-29T10:34:49.412Z,101798.97
2022-11-29T10:37:20.414Z,101797.16
2022-11-29T10:39:58.640Z,101791.56
2022-11-29T10:42:46.495Z,101791.38
2022-11-29T10:45:24.959Z,101784.25
2022-11-29T10:47:53.688Z,101794.06
2022-11-29T10:50:25.892Z,101788.56
2022-11-29T10:52:59.916Z,101794.06
2022-11-29T10:55:31.020Z,101780.59
2022-11-29T10:58:15.618Z,101792.44
2022-11-29T11:00:50.149Z,101791.47
2022-11-29T11:03:42.682Z,101792.44
2022-11-29T11:06:17.188Z,101792.44
2022-11-29T11:08:48.543Z,101791.47
2022-11-29T11:11:24.866Z,101789.44
2022-11-29T11:14:06.005Z,101787.50
2022-11-29T11:16:37.351Z,101792.81
2022-11-29T11:19:25.614Z,101792.91
2022-11-29T11:21:52.268Z,101793.88
2022-11-29T11:24:28.837Z,101798.38
2022-11-29T11:26:56.360Z,101802.72
2022-11-29T11:29:34.128Z,101808.88
2022-11-29T11:32:00.925Z,101803.38
2022-11-29T11:34:27.431Z,101806.19
2022-11-29T11:37:14.758Z,101809.63
2022-11-29T11:39:42.621Z,101806.06
2022-11-29T11:42:33.897Z,101810.78
2022-11-29T11:45:02.090Z,101815.22
2022-11-29T11:47:32.737Z,101821.66
2022-11-29T11:50:02.370Z,101825.31
2022-11-29T11:52:52.371Z,101820.03
2022-11-29T11:55:21.908Z,101823.69
2022-11-29T11:58:09.887Z,101818.50
2022-11-29T12:01:05.476Z,101832.63
2022-11-29T12:03:43.846Z,101837.06
2022-11-29T12:06:31.754Z,101832.53
2022-11-29T12:09:24.867Z,101843.31
2022-11-29T12:12:01.856Z,101842.44
2022-11-29T12:14:40.197Z,101842.75
2022-11-29T12:17:22.788Z,101847.75
2022-11-29T12:20:01.391Z,101849.88
2022-11-29T12:22:37.405Z,101853.63
2022-11-29T12:25:10.524Z,101853.63
2022-11-29T12:27:37.087Z,101856.41
2022-11-29T12:30:12.117Z,101854.75
2022-11-29T12:33:06.171Z,101852.94
2022-11-29T12:36:20.664Z,101860.06
2022-11-29T12:38:59.320Z,101861.50
2022-11-29T12:41:40.889Z,101865.84
2022-11-29T12:44:19.291Z,101872.00
2022-11-29T12:47:13.252Z,101875.47
2022-11-29T12:50:28.661Z,101882.75
2022-11-29T12:53:27.078Z,101883.44
2022-11-29T12:56:15.695Z,101892.38
2022-11-29T12:58:55.776Z,101895.19
2022-11-29T13:01:31.221Z,101894.22
2022-11-29T13:04:03.528Z,101895.09
2022-11-29T13:06:43.400Z,101894.88
2022-11-29T13:09:43.890Z,101894.78
2022-11-29T13:12:20.586Z,101898.34
2022-11-29T13:14:59.846Z,101898.25
2022-11-29T13:17:45.287Z,101902.78
2022-11-29T13:20:50.285Z,101907.22
2022-11-29T13:23:39.022Z,101902.78
2022-11-29T13:26:12.575Z,101903.66
2022-11-29T13:28:42.105Z,101911.72
2022-11-29T13:31:15.500Z,101905.38
2022-11-29T13:34:03.201Z,101907.22
2022-11-29T13:36:44.880Z,101908.84
2022-11-29T13:39:33.205Z,101905.28
2022-11-29T13:42:21.957Z,101907.22
2022-11-29T13:44:54.862Z,101912.69
2022-11-29T13:47:22.427Z,101910.00
2022-11-29T13:50:44.929Z,101911.81
2022-11-29T13:53:16.743Z,101912.69
2022-11-29T13:56:02.554Z,101908.06
2022-11-29T13:58:28.922Z,101906.81
2022-11-29T14:01:05.285Z,101908.28
2022-11-29T14:03:38.672Z,101910.09
2022-11-29T14:06:21.127Z,101907.59
2022-11-29T14:09:19.819Z,101906.72
2022-11-29T14:11:43.306Z,101915.69
2022-11-29T14:14:25.076Z,101907.50
2022-11-29T14:17:03.079Z,101904.63
2022-11-29T14:19:35.532Z,101910.88
2022-11-29T14:22:02.037Z,101909.13
2022-11-29T14:24:37.891Z,101912.78
2022-11-29T14:27:07.719Z,101910.88
2022-11-29T14:29:49.789Z,101912.50
2022-11-29T14:32:49.442Z,101919.53
2022-11-29T14:35:26.725Z,101920.34
2022-11-29T14:38:11.535Z,101924.81
2022-11-29T14:40:41.260Z,101923.03
2022-11-29T14:43:26.441Z,101937.44
2022-11-29T14:46:15.689Z,101928.31
2022-11-29T14:48:47.514Z,101934.38
2022-11-29T14:51:17.313Z,101929.97
2022-11-29T14:53:47.040Z,101924.38
2022-11-29T14:56:28.752Z,101926.88
2022-11-29T14:59:32.915Z,101925.91
2022-11-29T15:02:07.113Z,101931.13
2022-11-29T15:04:36.395Z,101928.41
2022-11-29T15:07:04.554Z,101935.63
2022-11-29T15:09:33.375Z,101937.47
2022-11-29T15:12:04.648Z,101935.63
2022-11-29T15:14:52.307Z,101930.16
2022-11-29T15:17:37.727Z,101929.38
2022-11-29T15:20:32.367Z,101941.91
2022-11-29T15:23:01.714Z,101939.22
2022-11-29T15:25:31.748Z,101941.03
2022-11-29T15:28:00.919Z,101938.25
2022-11-29T15:30:27.593Z,101941.91
2022-11-29T15:32:54.340Z,101941.03
2022-11-29T15:35:21.132Z,101941.03
2022-11-29T15:37:49.739Z,101938.44
2022-11-29T15:40:19.807Z,101937.56
2022-11-29T15:43:01.875Z,101943.91
2022-11-29T15:45:30.540Z,101941.31
2022-11-29T15:48:21.572Z,101941.41
2022-11-29T15:51:21.251Z,101945.94
2022-11-29T15:54:11.290Z,101939.88
2022-11-29T15:56:54.515Z,101949.59
2022-11-29T15:59:30.105Z,101956.06
2022-11-29T16:02:00.410Z,101955.19
2022-11-29T16:04:27.244Z,101948.94
2022-11-29T16:06:55.344Z,101944.41
2022-11-29T16:09:36.457Z,101947.09
2022-11-29T16:12:03.524Z,101949.78
2022-11-29T16:14:30.101Z,101948.06
2022-11-29T16:17:00.535Z,101950.03
2022-11-29T16:19:37.898Z,101951.97
2022-11-29T16:22:10.529Z,101953.13
2022-11-29T16:24:48.041Z,101946.19
2022-11-29T16:27:14.984Z,101945.50
2022-11-29T16:29:45.225Z,101952.16
2022-11-29T16:32:29.966Z,101949.72
2022-11-29T16:35:03.993Z,101944.72
2022-11-29T16:37:38.377Z,101949.53
2022-11-29T16:40:05.692Z,101952.59
2022-11-29T16:42:33.660Z,101958.34
2022-11-29T16:45:05.506Z,101961.31
2022-11-29T16:47:47.500Z,101968.78
2022-11-29T16:50:18.220Z,101963.22
2022-11-29T16:52:45.642Z,101968.53
2022-11-29T16:55:12.512Z,101964.88
2022-11-29T16:57:39.836Z,101964.78
2022-11-29T17:00:11.224Z,101976.41
2022-11-29T17:02:37.872Z,101969.19
2022-11-29T17:05:04.715Z,101971.97
2022-11-29T17:07:35.276Z,101969.19
2022-11-29T17:10:02.267Z,101978.94
2022-11-29T17:12:28.756Z,101981.44
2022-11-29T17:14:55.294Z,101977.88
2022-11-29T17:17:21.839Z,101981.34
2022-11-29T17:19:48.353Z,101981.44
2022-11-29T17:22:15.111Z,101976.91
2022-11-29T17:24:47.441Z,101977.78
2022-11-29T17:27:14.490Z,101980.38
2022-11-29T17:29:41.001Z,101979.34
2022-11-29T17:32:07.596Z,101985.59
2022-11-29T17:34:35.245Z,101983.75
2022-11-29T17:37:05.258Z,101989.16
2022-11-29T17:39:32.981Z,101982.13
2022-11-29T17:41:59.598Z,101982.22
2022-11-29T17:44:26.248Z,101984.03
2022-11-29T17:46:52.783Z,101998.19
2022-11-29T17:49:19.449Z,101995.50
2022-11-29T17:51:53.939Z,101996.28
2022-11-29T17:54:21.604Z,101992.72
2022-11-29T17:56:48.130Z,102000.69
2022-11-29T17:59:14.720Z,102001.75
2022-11-29T18:01:41.652Z,101997.31
2022-11-29T18:04:08.608Z,102000.88
2022-11-29T18:06:40.197Z,102003.56
2022-11-29T18:09:08.863Z,102004.53
2022-11-29T18:11:46.883Z,102013.56
2022-11-29T18:14:18.072Z,102013.66
2022-11-29T18:16:45.422Z,102019.03
2022-11-29T18:19:14.526Z,102011.75
2022-11-29T18:21:41.253Z,102019.81
2022-11-29T18:24:08.415Z,102024.34
2022-11-29T18:26:36.252Z,102017.13
2022-11-29T18:29:03.865Z,102034.34
2022-11-29T18:31:32.940Z,102031.66
2022-11-29T18:34:01.257Z,102030.78
2022-11-29T18:36:29.205Z,102030.78
2022-11-29T18:38:59.036Z,102027.22
2022-11-29T18:41:28.192Z,102034.53
2022-11-29T18:43:59.100Z,102038.16
2022-11-29T18:46:32.136Z,102026.63
2022-11-29T18:49:01.011Z,102030.28
2022-11-29T18:51:29.280Z,102032.97
2022-11-29T18:53:56.426Z,102032.97
2022-11-29T18:56:25.663Z,102024.97
2022-11-29T18:59:04.656Z,102029.50
2022-11-29T19:01:34.331Z,102034.09
2022-11-29T19:04:01.717Z,102037.66
2022-11-29T19:06:39.198Z,102034.97
2022-11-29T19:09:09.917Z,102032.19
2022-11-29T19:11:36.577Z,102036.88
2022-11-29T19:14:05.953Z,102028.91
2022-11-29T19:16:34.574Z,102028.91
2022-11-29T19:19:01.759Z,102032.44
2022-11-29T19:21:31.838Z,102035.25
2022-11-29T19:24:03.321Z,102044.19
2022-11-29T19:26:32.424Z,102045.13
2022-11-29T19:29:00.782Z,102050.69
2022-11-29T19:31:27.904Z,102043.59
2022-11-29T19:33:55.399Z,102045.50
2022-11-29T19:36:27.383Z,102051.94
2022-11-29T19:38:54.696Z,102051.94
2022-11-29T19:41:24.463Z,102054.72
2022-11-29T19:43:51.565Z,102050.19
2022-11-29T19:46:19.865Z,102053.75
2022-11-29T19:48:47.133Z,102052.88
2022-11-29T19:51:17.402Z,102055.66
2022-11-29T19:53:45.524Z,102049.31
2022-11-29T19:56:16.795Z,102054.78
2022-11-29T19:58:44.057Z,102048.63
2022-11-29T20:01:22.951Z,102050.44
2022-11-29T20:03:50.188Z,102050.38
2022-11-29T20:06:17.613Z,102058.28
2022-11-29T20:08:45.013Z,102060.88
2022-11-29T20:11:20.159Z,102055.41
2022-11-29T20:13:52.062Z,102056.34
2022-11-29T20:16:19.251Z,102058.19
2022-11-29T20:18:50.988Z,102057.13
2022-11-29T20:21:20.410Z,102061.56
2022-11-29T20:23:47.299Z,102061.75
2022-11-29T20:26:17.680Z,102066.16
2022-11-29T20:28:45.031Z,102066.34
2022-11-29T20:31:15.802Z,102067.13
2022-11-29T20:33:44.404Z,102072.50
2022-11-29T20:36:48.626Z,102068.94
2022-11-29T20:39:41.106Z,102066.25
2022-11-29T20:42:49.900Z,102069.03
2022-11-29T20:45:16.959Z,102069.81
2022-11-29T20:47:46.483Z,102068.84
2022-11-29T20:50:25.011Z,102078.66
2022-11-29T20:53:10.227Z,102072.25
2022-11-29T20:55:42.439Z,102077.44
2022-11-29T20:58:13.057Z,102081.88
2022-11-29T21:00:39.534Z,102080.84
2022-11-29T21:03:05.989Z,102083.53
2022-11-29T21:05:36.679Z,102079.09
2022-11-29T21:08:03.226Z,102076.41
2022-11-29T21:10:29.764Z,102082.75
2022-11-29T21:12:56.635Z,102077.44
2022-11-29T21:15:23.441Z,102081.00
2022-11-29T21:17:50.394Z,102085.53
2022-11-29T21:20:21.021Z,102084.94
2022-11-29T21:23:05.688Z,102085.00
2022-11-29T21:25:47.433Z,102082.41
2022-11-29T21:28:15.883Z,102086.06
2022-11-29T21:30:43.944Z,102088.91
2022-11-29T21:33:14.899Z,102093.44
2022-11-29T21:35:41.476Z,102091.69
2022-11-29T21:38:14.568Z,102088.13
2022-11-29T21:40:41.220Z,102091.69
2022-11-29T21:43:07.687Z,102089.06
2022-11-29T21:45:34.111Z,102089.88
2022-11-29T21:48:01.048Z,102098.81
2022-11-29T21:50:27.688Z,102097.78
2022-11-29T21:52:54.142Z,102104.03
2022-11-29T21:55:20.632Z,102106.63
2022-11-29T21:57:47.152Z,102112.97
2022-11-29T22:00:14.262Z,102106.56
2022-11-29T22:02:40.984Z,102110.88
2022-11-29T22:05:09.600Z,102102.03
2022-11-29T22:07:36.209Z,102102.22
2022-11-29T22:10:10.008Z,102100.56
2022-11-29T22:12:42.877Z,102112.09
2022-11-29T22:15:19.030Z,102110.19
2022-11-29T22:17:50.059Z,102112.03
2022-11-29T22:20:16.684Z,102108.63
2022-11-29T22:22:43.193Z,102105.16
2022-11-29T22:25:09.806Z,102107.00
2022-11-29T22:27:36.802Z,102107.84
2022-11-29T22:30:03.490Z,102108.63
2022-11-29T22:32:29.989Z,102106.72
2022-11-29T22:34:56.529Z,102103.25
2022-11-29T22:37:23.079Z,102100.56
2022-11-29T22:39:49.781Z,102104.22
2022-11-29T22:42:16.287Z,102107.03
2022-11-29T22:44:42.788Z,102105.22
2022-11-29T22:47:09.312Z,102106.63
2022-11-29T22:49:35.911Z,102115.94
2022-11-29T22:52:02.442Z,102115.41
2022-11-29T22:54:29.944Z,102115.81
2022-11-29T22:56:56.404Z,102108.00
2022-11-29T22:59:22.866Z,102117.25
2022-11-29T23:01:49.454Z,102111.34
2022-11-29T23:04:15.986Z,102110.88
2022-11-29T23:06:44.686Z,102111.41
2022-11-29T23:09:19.766Z,102119.13
2022-11-29T23:11:50.916Z,102115.97
2022-11-29T23:14:17.986Z,102116.66
2022-11-29T23:16:44.545Z,102121.97
2022-11-29T23:19:12.283Z,102123.59
2022-11-29T23:21:40.623Z,102122.34
2022-11-29T23:24:07.551Z,102124.69
2022-11-29T23:26:40.812Z,102128.94
2022-11-29T23:29:13.208Z,102126.03
2022-11-29T23:31:39.877Z,102130.47
2022-11-29T23:34:06.493Z,102124.13
2022-11-29T23:36:33.759Z,102124.97
2022-11-29T23:39:04.783Z,102130.38
2022-11-29T23:41:31.285Z,102132.41
2022-11-29T23:43:59.637Z,102136.16
2022-11-29T23:46:26.350Z,102126.31
2022-11-29T23:48:53.135Z,102129.03
2022-11-29T23:51:20.238Z,102129.78
2022-11-29T23:53:51.185Z,102121.41
2022-11-29T23:56:19.592Z,102129.50
2022-11-29T23:58:46.909Z,102128.06
